Time;durP1;ratioP1;P1;durP2;ratioP2;P2;SDS_P1;SDS_P2;PMS_P1;PMS_P2;Temp;Humidity;BMP_temperature;BMP_pressure;BME280_temperature;BME280_humidity;BME280_pressure;Samples;Min_cycle;Max_cycle;Signal;HPM_P1;HPM_P2
2023/06/05 00:00:01;;;;;;;3.47;1.48;;;17.20;96.30;;;;;;5013628;28;20052;-75
2023/06/05 00:02:38;;;;;;;3.08;1.58;;;17.20;96.10;;;;;;5021860;28;20044;-74
2023/06/05 00:05:08;;;;;;;5.65;2.67;;;16.60;96.40;;;;;;5000997;28;20048;-75
2023/06/05 00:07:39;;;;;;;6.15;2.13;;;17.20;95.70;;;;;;5011820;28;20072;-75
2023/06/05 00:10:08;;;;;;;4.15;1.50;;;17.20;95.10;;;;;;5042256;28;20139;-75
2023/06/05 00:12:36;;;;;;;4.50;1.70;;;16.60;95.20;;;;;;5016514;28;20411;-75
2023/06/05 00:15:04;;;;;;;2.55;1.40;;;17.20;95.30;;;;;;5011262;28;22188;-75
2023/06/05 00:17:32;;;;;;;3.85;1.65;;;17.20;95.50;;;;;;5022224;28;20058;-75
2023/06/05 00:19:59;;;;;;;4.82;1.50;;;17.20;96.00;;;;;;4997722;28;20045;-75
2023/06/05 00:22:33;;;;;;;6.15;1.83;;;17.20;96.10;;;;;;5012723;28;20168;-75
2023/06/05 00:25:01;;;;;;;4.47;1.90;;;17.20;96.40;;;;;;5030237;28;20885;-75
2023/06/05 00:27:28;;;;;;;4.13;1.27;;;17.20;96.30;;;;;;5022279;28;20131;-75
2023/06/05 00:29:55;;;;;;;5.35;1.50;;;17.20;96.30;;;;;;5004248;28;20063;-75
2023/06/05 00:32:22;;;;;;;4.63;1.90;;;17.20;96.30;;;;;;5027894;28;20201;-75
2023/06/05 00:34:50;;;;;;;4.88;2.08;;;16.50;95.90;;;;;;5015674;28;20103;-75
2023/06/05 00:37:18;;;;;;;4.75;1.40;;;17.20;96.10;;;;;;5000934;28;21501;-75
2023/06/05 00:39:45;;;;;;;4.70;1.90;;;17.20;97.10;;;;;;5012294;28;20504;-75
2023/06/05 00:42:13;;;;;;;3.83;1.83;;;17.20;96.60;;;;;;5016569;28;20138;-75
2023/06/05 00:44:40;;;;;;;5.18;1.83;;;17.20;97.10;;;;;;5003196;28;20117;-75
2023/06/05 00:47:07;;;;;;;5.47;1.80;;;17.20;96.30;;;;;;5009900;28;20147;-75
2023/06/05 00:49:35;;;;;;;3.88;1.00;;;17.20;96.10;;;;;;5006782;28;20053;-75
2023/06/05 00:52:03;;;;;;;4.28;1.35;;;17.20;96.60;;;;;;5011489;28;20094;-75
2023/06/05 00:54:31;;;;;;;4.82;1.77;;;17.20;95.90;;;;;;5022713;28;20049;-75
2023/06/05 00:56:58;;;;;;;6.35;1.63;;;17.20;96.20;;;;;;5031736;28;20546;-75
2023/06/05 00:59:26;;;;;;;4.30;1.55;;;17.20;96.00;;;;;;5012734;28;20237;-75
2023/06/05 01:01:54;;;;;;;3.97;1.48;;;17.20;95.80;;;;;;5013982;28;20049;-75
2023/06/05 01:04:23;;;;;;;7.30;2.03;;;17.20;96.00;;;;;;5003618;28;20476;-75
2023/06/05 01:06:51;;;;;;;5.40;1.77;;;17.20;95.60;;;;;;5010847;28;20159;-75
2023/06/05 01:09:19;;;;;;;4.47;1.70;;;17.20;95.70;;;;;;5015401;28;20045;-75
2023/06/05 01:12:00;;;;;;;3.58;1.75;;;17.20;96.00;;;;;;5023403;28;20048;-75
2023/06/05 01:14:30;;;;;;;4.57;2.00;;;17.20;96.00;;;;;;5003894;28;20052;-75
2023/06/05 01:17:00;;;;;;;4.50;1.33;;;17.20;96.20;;;;;;4995321;28;20207;-75
2023/06/05 01:19:30;;;;;;;4.82;2.15;;;17.20;96.40;;;;;;5017211;28;20052;-75
2023/06/05 01:21:59;;;;;;;2.42;1.10;;;17.20;96.00;;;;;;4994740;28;20237;-75
2023/06/05 01:24:30;;;;;;;5.78;1.40;;;17.20;96.00;;;;;;5014921;28;20538;-75
2023/06/05 01:27:15;;;;;;;7.65;2.03;;;17.20;95.90;;;;;;4997813;28;20048;-75
2023/06/05 01:29:49;;;;;;;4.00;1.90;;;17.20;96.20;;;;;;5035084;28;20083;-75
2023/06/05 01:32:24;;;;;;;5.03;1.30;;;17.20;96.00;;;;;;5017581;28;20877;-75
2023/06/05 01:34:53;;;;;;;2.53;1.02;;;17.20;95.60;;;;;;5009912;28;22379;-75
2023/06/05 01:37:24;;;;;;;3.50;0.85;;;17.20;95.60;;;;;;4995390;28;20045;-75
2023/06/05 01:39:55;;;;;;;5.18;1.38;;;17.20;95.60;;;;;;5024813;28;20500;-75
2023/06/05 01:42:25;;;;;;;4.03;1.75;;;17.20;96.20;;;;;;5015152;28;20085;-75
2023/06/05 01:44:52;;;;;;;3.47;1.38;;;17.20;96.70;;;;;;5007818;28;20144;-75
2023/06/05 01:47:21;;;;;;;5.22;1.45;;;17.20;96.40;;;;;;4994411;28;20059;-75
2023/06/05 01:49:48;;;;;;;4.22;1.33;;;17.20;96.20;;;;;;5025765;28;20049;-75
2023/06/05 01:52:15;;;;;;;3.33;1.23;;;17.20;96.30;;;;;;5007159;28;20088;-75
2023/06/05 01:54:42;;;;;;;4.65;1.42;;;17.20;96.20;;;;;;5013019;28;22707;-75
2023/06/05 01:57:11;;;;;;;5.32;1.65;;;17.20;95.90;;;;;;5016029;28;20033;-75
2023/06/05 01:59:38;;;;;;;2.22;1.23;;;17.20;96.30;;;;;;5020859;28;20163;-75
2023/06/05 02:02:05;;;;;;;4.95;1.40;;;17.20;96.40;;;;;;5014988;28;21121;-75
2023/06/05 02:04:32;;;;;;;3.08;1.13;;;17.20;96.30;;;;;;5017612;28;20049;-75
2023/06/05 02:07:03;;;;;;;2.78;1.27;;;17.20;95.80;;;;;;5018609;28;20063;-75
2023/06/05 02:09:33;;;;;;;1.90;0.85;;;17.20;95.80;;;;;;5030220;28;20053;-75
2023/06/05 02:12:05;;;;;;;4.95;1.50;;;17.20;96.10;;;;;;5011169;28;20049;-75
2023/06/05 02:14:37;;;;;;;3.50;1.38;;;17.20;96.00;;;;;;5013929;28;20503;-75
2023/06/05 02:17:05;;;;;;;4.57;1.05;;;17.20;95.70;;;;;;4997205;28;22268;-75
2023/06/05 02:19:33;;;;;;;2.83;1.20;;;17.20;95.80;;;;;;5013537;28;20048;-75
2023/06/05 02:22:01;;;;;;;3.05;1.33;;;17.20;96.00;;;;;;5019590;28;20049;-75
2023/06/05 02:24:28;;;;;;;3.47;1.50;;;17.20;96.20;;;;;;5033455;28;20543;-75
2023/06/05 02:26:56;;;;;;;2.58;0.98;;;17.20;95.80;;;;;;5010981;28;20061;-75
2023/06/05 02:29:24;;;;;;;3.25;1.63;;;17.20;95.90;;;;;;5015499;28;20052;-75
2023/06/05 02:31:51;;;;;;;3.42;1.00;;;17.20;95.90;;;;;;5006694;28;20052;-75
2023/06/05 02:34:19;;;;;;;2.60;1.23;;;17.20;96.20;;;;;;5023475;28;22162;-75
2023/06/05 02:36:46;;;;;;;4.03;1.55;;;17.20;97.00;;;;;;5010286;28;20056;-75
2023/06/05 02:39:14;;;;;;;2.33;1.27;;;17.10;96.70;;;;;;5012816;28;20081;-75
2023/06/05 02:41:44;;;;;;;3.85;1.20;;;17.20;97.20;;;;;;5013733;28;20033;-75
2023/06/05 02:44:11;;;;;;;4.72;1.30;;;17.20;95.90;;;;;;5018637;28;20049;-75
2023/06/05 02:46:38;;;;;;;4.05;1.40;;;17.20;96.20;;;;;;5011793;28;20087;-75
2023/06/05 02:49:06;;;;;;;2.63;1.13;;;17.20;96.20;;;;;;5017080;28;20052;-75
2023/06/05 02:51:33;;;;;;;3.05;1.20;;;17.20;96.40;;;;;;5023574;28;20056;-75
2023/06/05 02:54:00;;;;;;;3.60;1.10;;;17.20;96.30;;;;;;5030055;28;20048;-75
2023/06/05 02:56:27;;;;;;;5.28;1.52;;;17.20;96.30;;;;;;5018585;28;20641;-75
2023/06/05 02:58:56;;;;;;;2.78;1.02;;;17.10;96.50;;;;;;4998062;28;20649;-75
2023/06/05 03:01:25;;;;;;;3.53;1.58;;;17.20;96.40;;;;;;5000958;28;20083;-75
2023/06/05 03:03:53;;;;;;;4.22;1.65;;;17.10;96.40;;;;;;5016910;28;20465;-75
2023/06/05 03:06:27;;;;;;;3.55;1.35;;;17.20;96.60;;;;;;5024854;28;20048;-75
2023/06/05 03:08:55;;;;;;;6.70;2.10;;;17.10;96.20;;;;;;5030555;28;20739;-75
2023/06/05 03:11:24;;;;;;;5.78;1.42;;;17.10;96.00;;;;;;5014744;28;20084;-75
2023/06/05 03:13:53;;;;;;;3.15;1.80;;;18.70;96.40;;;;;;5021083;28;20140;-75
2023/06/05 03:16:23;;;;;;;4.47;1.10;;;17.10;96.10;;;;;;5022701;28;20067;-75
2023/06/05 03:18:54;;;;;;;3.72;1.13;;;17.10;96.10;;;;;;5006993;28;20052;-75
2023/06/05 03:21:21;;;;;;;3.40;1.20;;;17.10;95.80;;;;;;5003784;28;20286;-75
2023/06/05 03:23:49;;;;;;;3.47;1.38;;;17.10;96.30;;;;;;5010005;28;20626;-75
2023/06/05 03:26:17;;;;;;;4.70;1.48;;;17.10;96.50;;;;;;5023120;28;20408;-75
2023/06/05 03:28:46;;;;;;;4.97;1.30;;;17.00;96.50;;;;;;5001090;28;20142;-75
2023/06/05 03:31:15;;;;;;;4.75;1.58;;;17.10;96.20;;;;;;4997143;28;20074;-75
2023/06/05 03:33:45;;;;;;;5.28;1.73;;;17.10;96.50;;;;;;5012741;28;20056;-75
2023/06/05 03:36:17;;;;;;;3.15;1.50;;;17.10;96.90;;;;;;5015132;28;20804;-75
2023/06/05 03:38:47;;;;;;;2.67;1.52;;;17.00;97.10;;;;;;5007046;28;20041;-75
2023/06/05 03:41:14;;;;;;;3.28;1.15;;;17.00;97.60;;;;;;4999257;28;20053;-75
2023/06/05 03:43:42;;;;;;;5.70;1.73;;;17.00;97.70;;;;;;5023570;28;20037;-75
2023/06/05 03:46:10;;;;;;;4.07;1.60;;;17.10;97.70;;;;;;5000698;28;20056;-75
2023/06/05 03:48:39;;;;;;;5.72;1.70;;;17.10;97.70;;;;;;4994187;28;20037;-75
2023/06/05 03:51:06;;;;;;;8.02;1.55;;;17.10;98.30;;;;;;5003391;28;20416;-75
2023/06/05 03:53:34;;;;;;;3.30;1.15;;;17.20;98.30;;;;;;5031977;28;20041;-75
2023/06/05 03:56:03;;;;;;;3.97;1.45;;;17.20;98.20;;;;;;5022687;28;20053;-75
2023/06/05 03:58:35;;;;;;;3.22;1.90;;;17.30;98.00;;;;;;5012724;28;20053;-75
2023/06/05 04:01:03;;;;;;;3.45;1.42;;;17.30;97.70;;;;;;5016863;28;20579;-75
2023/06/05 04:03:30;;;;;;;6.88;1.55;;;17.40;98.30;;;;;;5009842;28;20052;-75
2023/06/05 04:05:58;;;;;;;5.53;1.73;;;17.50;97.40;;;;;;5017718;28;20457;-75
2023/06/05 04:08:25;;;;;;;5.38;2.55;;;17.60;96.90;;;;;;5009810;28;20614;-75
2023/06/05 04:10:52;;;;;;;4.28;1.90;;;17.50;95.50;;;;;;5019100;28;20127;-74
2023/06/05 04:13:21;;;;;;;3.75;1.42;;;17.60;95.20;;;;;;5017894;28;22306;-75
2023/06/05 04:15:49;;;;;;;4.72;1.52;;;17.70;95.30;;;;;;5007997;28;20546;-76
2023/06/05 04:18:17;;;;;;;3.30;1.30;;;17.70;94.80;;;;;;4995283;28;22287;-75
2023/06/05 04:20:46;;;;;;;2.80;1.50;;;17.80;94.90;;;;;;5003779;28;20049;-75
2023/06/05 04:23:14;;;;;;;3.05;1.33;;;17.90;94.60;;;;;;5009927;28;20063;-74
2023/06/05 04:25:45;;;;;;;3.97;1.70;;;18.00;94.40;;;;;;5011338;28;20048;-74
2023/06/05 04:28:13;;;;;;;3.35;1.27;;;18.00;93.90;;;;;;5005163;28;20144;-74
2023/06/05 04:30:40;;;;;;;3.13;1.70;;;17.90;93.20;;;;;;5026393;28;20045;-75
2023/06/05 04:33:07;;;;;;;3.40;1.40;;;17.90;93.30;;;;;;5002016;28;20091;-74
2023/06/05 04:35:38;;;;;;;5.43;1.50;;;17.90;93.20;;;;;;5012148;28;22146;-75
2023/06/05 04:38:05;;;;;;;3.42;1.42;;;17.90;93.00;;;;;;5011053;28;20080;-75
2023/06/05 04:40:33;;;;;;;4.65;1.63;;;17.90;93.20;;;;;;4997594;28;22206;-75
2023/06/05 04:43:01;;;;;;;2.63;1.40;;;17.90;93.60;;;;;;5008759;28;20048;-75
2023/06/05 04:45:29;;;;;;;3.50;1.63;;;18.00;93.40;;;;;;5030778;28;20041;-75
2023/06/05 04:47:56;;;;;;;2.40;1.00;;;18.00;93.40;;;;;;5027224;28;20805;-75
2023/06/05 04:50:26;;;;;;;3.05;1.30;;;18.10;92.90;;;;;;5029980;28;20047;-75
2023/06/05 04:53:00;;;;;;;2.83;1.25;;;18.10;92.40;;;;;;5045090;28;20048;-75
2023/06/05 04:55:27;;;;;;;3.47;1.35;;;18.10;92.40;;;;;;4998498;28;20411;-75
2023/06/05 04:58:00;;;;;;;6.50;2.08;;;18.20;91.80;;;;;;5011352;28;20078;-75
2023/06/05 05:00:30;;;;;;;6.03;2.25;;;18.10;91.50;;;;;;4999162;28;20428;-75
2023/06/05 05:02:59;;;;;;;2.47;1.33;;;18.10;91.70;;;;;;5008927;28;20056;-74
2023/06/05 05:05:28;;;;;;;2.95;1.67;;;18.20;92.00;;;;;;5018953;28;20052;-74
2023/06/05 05:07:56;;;;;;;3.45;1.77;;;18.20;91.60;;;;;;5003803;28;22121;-75
2023/06/05 05:10:26;;;;;;;4.10;2.42;;;18.20;91.70;;;;;;5018882;28;20053;-75
2023/06/05 05:12:54;;;;;;;4.25;1.92;;;18.20;91.60;;;;;;5005950;28;20076;-74
2023/06/05 05:15:21;;;;;;;2.65;1.45;;;18.30;91.40;;;;;;5029298;28;20274;-75
2023/06/05 05:17:49;;;;;;;3.53;1.70;;;18.30;91.30;;;;;;5024443;28;20052;-75
2023/06/05 05:20:18;;;;;;;2.47;1.13;;;18.40;91.40;;;;;;5006846;28;20079;-76
2023/06/05 05:22:46;;;;;;;3.25;1.58;;;18.40;91.50;;;;;;5035795;28;21081;-76
2023/06/05 05:25:14;;;;;;;3.88;1.20;;;18.50;91.20;;;;;;4997463;28;20679;-75
2023/06/05 05:27:42;;;;;;;5.32;1.48;;;18.50;91.00;;;;;;5027455;28;20053;-75
2023/06/05 05:30:10;;;;;;;3.83;1.45;;;18.60;90.60;;;;;;5000994;28;20044;-75
2023/06/05 05:32:37;;;;;;;2.65;1.40;;;18.60;89.20;;;;;;5000944;28;20063;-74
2023/06/05 05:35:07;;;;;;;4.82;1.60;;;18.70;89.40;;;;;;5012667;28;20075;-74
2023/06/05 05:37:34;;;;;;;3.13;1.70;;;18.70;87.90;;;;;;5022624;28;20044;-74
2023/06/05 05:40:03;;;;;;;3.58;1.38;;;18.70;88.80;;;;;;5025982;28;20520;-75
2023/06/05 05:42:30;;;;;;;6.13;1.80;;;18.70;88.60;;;;;;4997611;28;20041;-75
2023/06/05 05:44:59;;;;;;;2.83;1.50;;;18.80;87.20;;;;;;5011977;28;20053;-75
2023/06/05 05:47:26;;;;;;;2.45;1.63;;;18.80;87.60;;;;;;5010691;28;20193;-75
2023/06/05 05:49:53;;;;;;;3.05;1.13;;;18.90;87.90;;;;;;5011506;28;20045;-75
2023/06/05 05:52:22;;;;;;;2.78;1.27;;;18.90;87.70;;;;;;5010550;28;20056;-75
2023/06/05 05:54:50;;;;;;;3.05;1.10;;;19.00;86.80;;;;;;5030121;28;20530;-75
2023/06/05 05:57:17;;;;;;;2.83;1.33;;;19.00;85.90;;;;;;5035287;28;22625;-75
2023/06/05 05:59:44;;;;;;;3.75;1.40;;;19.10;85.70;;;;;;5022452;28;20490;-75
2023/06/05 06:02:12;;;;;;;2.17;1.25;;;19.30;85.40;;;;;;5028362;28;20408;-75
2023/06/05 06:04:40;;;;;;;3.35;1.30;;;19.60;86.00;;;;;;5011831;28;20041;-75
2023/06/05 06:07:08;;;;;;;4.82;1.70;;;20.10;85.30;;;;;;5023735;28;20056;-75
2023/06/05 06:09:35;;;;;;;2.35;1.30;;;20.40;84.80;;;;;;5013612;28;20087;-75
2023/06/05 06:12:05;;;;;;;4.85;1.52;;;20.60;80.70;;;;;;5008884;28;20855;-75
2023/06/05 06:14:33;;;;;;;5.15;1.30;;;20.60;80.70;;;;;;5031956;28;20241;-74
2023/06/05 06:17:02;;;;;;;4.38;1.77;;;20.40;80.90;;;;;;5009204;28;20150;-74
2023/06/05 06:19:32;;;;;;;4.38;1.70;;;20.20;80.10;;;;;;5011804;28;20049;-74
2023/06/05 06:22:00;;;;;;;5.22;1.50;;;20.20;81.60;;;;;;5017144;28;20419;-74
2023/06/05 06:24:28;;;;;;;4.05;1.30;;;20.40;81.90;;;;;;5013207;28;20119;-75
2023/06/05 06:26:58;;;;;;;5.40;1.70;;;20.40;81.50;;;;;;5002551;28;20060;-75
2023/06/05 06:29:27;;;;;;;3.38;1.15;;;20.70;81.90;;;;;;5019912;28;20063;-74
2023/06/05 06:31:55;;;;;;;2.95;1.48;;;21.80;81.70;;;;;;5018072;28;20060;-75
2023/06/05 06:34:24;;;;;;;2.67;1.23;;;20.80;80.10;;;;;;4982666;28;20815;-74
2023/06/05 06:36:52;;;;;;;3.13;1.58;;;20.90;79.70;;;;;;5004445;28;20133;-75
2023/06/05 06:39:19;;;;;;;3.58;1.60;;;20.80;79.00;;;;;;4984248;28;20045;-75
2023/06/05 06:41:47;;;;;;;3.00;1.48;;;20.30;78.30;;;;;;4990392;28;20453;-75
2023/06/05 06:44:15;;;;;;;3.33;1.17;;;21.40;79.30;;;;;;5003430;28;20423;-74
2023/06/05 06:46:42;;;;;;;2.22;1.00;;;19.80;78.10;;;;;;4987488;28;20166;-75
2023/06/05 06:49:10;;;;;;;3.90;1.08;;;21.00;78.80;;;;;;4987167;28;20445;-74
2023/06/05 06:51:38;;;;;;;3.15;1.45;;;21.00;78.90;;;;;;5000784;28;20182;-74
2023/06/05 06:54:05;;;;;;;2.88;1.30;;;21.10;79.10;;;;;;4986396;28;22858;-74
2023/06/05 06:56:32;;;;;;;3.78;1.40;;;20.20;77.50;;;;;;5020295;28;20676;-74
2023/06/05 06:59:02;;;;;;;3.55;1.65;;;21.00;78.50;;;;;;5032557;28;20132;-74
2023/06/05 07:01:30;;;;;;;4.07;1.45;;;20.90;78.50;;;;;;5016338;28;20423;-76
2023/06/05 07:03:57;;;;;;;6.15;1.77;;;20.90;79.60;;;;;;5016604;28;20079;-76
2023/06/05 07:06:25;;;;;;;3.28;1.52;;;21.00;78.60;;;;;;5024812;28;20126;-75
2023/06/05 07:08:53;;;;;;;2.63;1.17;;;21.00;79.80;;;;;;5016152;28;20049;-74
2023/06/05 07:11:23;;;;;;;2.58;1.10;;;20.90;78.60;;;;;;5028313;28;20053;-75
2023/06/05 07:13:50;;;;;;;2.90;1.00;;;21.10;79.50;;;;;;5002666;28;20056;-75
2023/06/05 07:16:18;;;;;;;5.03;0.90;;;21.20;80.00;;;;;;5022719;28;20052;-76
2023/06/05 07:18:45;;;;;;;2.30;1.10;;;21.40;79.60;;;;;;5020972;28;20807;-74
2023/06/05 07:21:13;;;;;;;2.88;1.48;;;21.30;78.60;;;;;;5014979;28;20499;-75
2023/06/05 07:23:41;;;;;;;2.97;1.40;;;21.20;79.30;;;;;;5011098;28;20535;-75
2023/06/05 07:26:09;;;;;;;4.38;1.17;;;21.20;79.40;;;;;;5029963;28;20044;-75
2023/06/05 07:28:36;;;;;;;4.50;1.23;;;21.10;80.80;;;;;;5024063;28;20058;-75
2023/06/05 07:31:04;;;;;;;4.20;1.52;;;21.10;80.60;;;;;;5002941;28;20629;-74
2023/06/05 07:33:31;;;;;;;4.72;1.98;;;21.10;80.00;;;;;;5042821;28;20051;-74
2023/06/05 07:36:00;;;;;;;6.30;1.48;;;21.00;79.70;;;;;;5017891;28;20060;-75
2023/06/05 07:38:29;;;;;;;3.17;1.63;;;20.90;79.90;;;;;;5025676;28;20040;-74
2023/06/05 07:40:58;;;;;;;3.45;1.05;;;21.00;80.20;;;;;;5006721;28;20401;-75
2023/06/05 07:43:25;;;;;;;2.17;1.20;;;21.00;80.70;;;;;;5035020;28;20431;-75
2023/06/05 07:45:55;;;;;;;3.55;1.17;;;21.00;79.90;;;;;;5001937;28;20053;-75
2023/06/05 07:48:23;;;;;;;4.15;1.45;;;20.90;79.60;;;;;;5003733;28;20936;-76
2023/06/05 07:50:50;;;;;;;3.17;1.20;;;21.00;80.00;;;;;;5011904;28;20060;-75
2023/06/05 07:53:17;;;;;;;2.85;1.33;;;21.00;80.40;;;;;;5032028;28;20356;-75
2023/06/05 07:55:45;;;;;;;3.50;1.52;;;20.90;79.60;;;;;;5003419;28;20554;-75
2023/06/05 07:58:12;;;;;;;5.10;1.98;;;20.90;80.30;;;;;;5017068;28;20036;-75
2023/06/05 08:00:45;;;;;;;2.50;1.20;;;20.90;79.40;;;;;;5015684;28;20142;-75
2023/06/05 08:03:13;;;;;;;6.88;1.50;;;21.10;80.50;;;;;;5031073;28;20532;-75
2023/06/05 08:05:42;;;;;;;8.00;2.20;;;20.90;79.00;;;;;;5024354;28;20423;-75
2023/06/05 08:08:10;;;;;;;3.13;1.08;;;20.90;78.80;;;;;;5028268;28;20504;-75
2023/06/05 08:10:37;;;;;;;2.70;1.20;;;20.90;79.20;;;;;;5008797;28;20555;-75
2023/06/05 08:13:04;;;;;;;6.10;1.70;;;20.90;79.40;;;;;;5013043;28;20053;-75
2023/06/05 08:15:32;;;;;;;3.40;1.15;;;21.00;79.40;;;;;;5014777;28;20041;-75
2023/06/05 08:17:59;;;;;;;4.60;1.27;;;21.00;78.30;;;;;;5008448;28;20087;-74
2023/06/05 08:20:26;;;;;;;1.88;0.98;;;20.90;78.30;;;;;;5015200;28;20048;-74
2023/06/05 08:22:57;;;;;;;4.38;1.30;;;21.00;78.60;;;;;;5001993;28;20048;-76
2023/06/05 08:25:25;;;;;;;4.18;1.40;;;21.00;78.60;;;;;;5016220;28;20072;-75
2023/06/05 08:27:53;;;;;;;2.63;1.23;;;20.90;78.80;;;;;;5032193;28;20092;-75
2023/06/05 08:30:21;;;;;;;3.08;1.00;;;21.20;79.00;;;;;;5000309;28;20045;-76
2023/06/05 08:32:48;;;;;;;3.25;1.27;;;21.00;78.60;;;;;;4989270;28;20053;-75
2023/06/05 08:35:16;;;;;;;2.05;1.23;;;21.00;78.40;;;;;;5013696;28;20044;-75
2023/06/05 08:37:43;;;;;;;6.93;1.98;;;20.90;78.10;;;;;;5003067;28;20122;-75
2023/06/05 08:40:18;;;;;;;4.15;1.40;;;21.00;78.50;;;;;;5005420;28;20059;-74
2023/06/05 08:42:46;;;;;;;2.83;1.48;;;21.00;78.60;;;;;;5012107;28;20053;-75
2023/06/05 08:45:13;;;;;;;1.95;1.20;;;21.00;79.00;;;;;;5018340;28;20040;-75
2023/06/05 08:47:42;;;;;;;2.85;1.15;;;20.60;79.20;;;;;;5025360;28;20062;-76
2023/06/05 08:50:10;;;;;;;3.30;1.77;;;21.00;79.30;;;;;;5015686;28;20036;-75
2023/06/05 08:52:39;;;;;;;4.65;1.20;;;21.00;79.10;;;;;;5019886;28;20052;-75
2023/06/05 08:55:07;;;;;;;3.63;1.35;;;21.00;78.70;;;;;;5029814;28;20155;-75
2023/06/05 08:57:38;;;;;;;4.85;1.33;;;21.10;79.40;;;;;;5026607;28;20048;-75
2023/06/05 09:00:14;;;;;;;3.03;1.30;;;21.00;78.70;;;;;;5015647;28;20090;-75
2023/06/05 09:02:47;;;;;;;3.15;1.00;;;21.20;78.80;;;;;;5017860;28;20254;-75
2023/06/05 09:05:16;;;;;;;3.00;1.00;;;21.20;78.20;;;;;;5021628;28;20514;-76
2023/06/05 09:07:43;;;;;;;3.85;1.38;;;21.30;78.70;;;;;;5015204;28;20139;-75
2023/06/05 09:10:27;;;;;;;3.20;1.50;;;21.40;78.00;;;;;;5026896;28;20067;-74
2023/06/05 09:13:04;;;;;;;2.13;1.00;;;21.40;77.70;;;;;;5030975;28;20060;-75
2023/06/05 09:15:33;;;;;;;4.47;1.10;;;21.40;77.00;;;;;;5010649;28;20061;-75
2023/06/05 09:18:12;;;;;;;3.80;1.30;;;21.50;77.60;;;;;;5012454;28;22824;-75
2023/06/05 09:20:42;;;;;;;6.55;1.30;;;21.60;77.00;;;;;;5026718;28;20056;-74
2023/06/05 09:23:28;;;;;;;3.95;1.30;;;21.70;76.60;;;;;;5026224;28;20071;-75
2023/06/05 09:25:58;;;;;;;3.08;1.10;;;21.80;76.10;;;;;;5008828;28;20408;-75
2023/06/05 09:28:26;;;;;;;2.13;1.00;;;21.90;76.40;;;;;;5004735;28;20056;-75
2023/06/05 09:31:04;;;;;;;3.08;1.23;;;22.10;75.40;;;;;;5010928;28;20060;-75
2023/06/05 09:33:37;;;;;;;3.78;1.20;;;22.10;74.40;;;;;;5023872;28;20752;-75
2023/06/05 09:36:05;;;;;;;4.78;1.13;;;22.20;75.10;;;;;;5023904;28;20048;-75
2023/06/05 09:38:34;;;;;;;4.20;1.13;;;22.20;75.10;;;;;;5014041;28;20727;-76
2023/06/05 09:41:14;;;;;;;3.95;1.00;;;22.20;75.80;;;;;;5013178;28;20138;-75
2023/06/05 09:43:42;;;;;;;4.65;1.23;;;22.30;75.70;;;;;;5016166;28;20042;-75
2023/06/05 09:46:11;;;;;;;4.05;1.35;;;22.30;75.80;;;;;;5001370;28;20048;-75
2023/06/05 09:48:39;;;;;;;5.30;1.27;;;22.40;73.80;;;;;;5014882;28;20159;-76
2023/06/05 09:51:12;;;;;;;3.95;1.48;;;22.40;74.50;;;;;;5023148;28;20619;-75
2023/06/05 09:53:48;;;;;;;6.38;1.25;;;22.50;73.80;;;;;;5011658;28;20052;-75
2023/06/05 09:56:17;;;;;;;4.07;1.65;;;22.60;72.30;;;;;;5011749;28;20057;-75
2023/06/05 09:58:52;;;;;;;3.45;1.17;;;22.60;71.90;;;;;;5017740;28;20117;-75
2023/06/05 10:01:22;;;;;;;3.05;1.23;;;22.80;73.30;;;;;;5029570;28;20088;-75
2023/06/05 10:03:59;;;;;;;2.90;1.20;;;22.90;72.00;;;;;;5011365;28;20049;-75
2023/06/05 10:06:28;;;;;;;3.53;1.20;;;23.00;73.00;;;;;;5016883;28;21405;-76
2023/06/05 10:08:56;;;;;;;2.05;0.90;;;23.10;72.80;;;;;;5012928;28;20235;-75
2023/06/05 10:11:29;;;;;;;3.40;1.20;;;23.10;72.80;;;;;;5024906;28;20060;-75
2023/06/05 10:13:59;;;;;;;;;;;23.00;71.80;;;;;;5022015;28;22573;-75
2023/06/05 10:16:28;;;;;;;4.78;0.95;;;23.10;72.30;;;;;;5015022;28;20050;-76
2023/06/05 10:18:57;;;;;;;2.38;1.30;;;23.20;71.70;;;;;;5039693;28;20056;-74
2023/06/05 10:21:25;;;;;;;1.95;0.95;;;23.30;71.00;;;;;;5013067;28;20775;-75
2023/06/05 10:23:58;;;;;;;2.28;1.00;;;23.40;71.00;;;;;;5020834;28;20158;-75
2023/06/05 10:26:56;;;;;;;1.70;0.95;;;23.50;70.90;;;;;;5004730;28;20059;-77
2023/06/05 10:29:40;;;;;;;2.83;0.82;;;23.60;70.50;;;;;;5023544;28;20647;-75
2023/06/05 10:32:16;;;;;;;4.93;1.63;;;23.60;71.30;;;;;;5021171;28;20056;-76
2023/06/05 10:35:00;;;;;;;3.53;1.20;;;23.70;70.20;;;;;;5011977;28;20041;-75
2023/06/05 10:37:56;;;;;;;2.67;1.67;;;23.80;69.60;;;;;;4987985;28;20594;-76
2023/06/05 10:40:24;;;;;;;5.18;1.10;;;23.80;69.40;;;;;;5002971;28;21190;-75
2023/06/05 10:42:51;;;;;;;4.40;1.23;;;23.90;70.50;;;;;;5001652;28;20103;-75
2023/06/05 10:45:32;;;;;;;3.03;1.15;;;23.90;69.60;;;;;;5024535;28;20052;-77
2023/06/05 10:47:59;;;;;;;5.13;1.02;;;24.00;68.70;;;;;;5011211;28;20045;-76
2023/06/05 10:50:30;;;;;;;2.75;1.55;;;24.00;69.00;;;;;;5006997;28;20552;-75
2023/06/05 10:52:58;;;;;;;2.58;1.10;;;24.10;68.40;;;;;;5015116;28;20139;-76
2023/06/05 10:55:27;;;;;;;2.40;1.20;;;24.20;68.90;;;;;;5012821;28;20182;-75
2023/06/05 10:58:13;;;;;;;2.25;0.98;;;24.30;70.10;;;;;;5007431;28;21284;-76
2023/06/05 11:01:16;;;;;;;1.73;0.90;;;24.30;68.50;;;;;;5017976;28;20099;-75
2023/06/05 11:03:56;;;;;;;3.83;1.35;;;24.30;68.00;;;;;;5011645;28;20526;-76
2023/06/05 11:06:24;;;;;;;4.13;2.08;;;24.30;68.10;;;;;;5014683;28;20079;-79
2023/06/05 11:09:13;;;;;;;2.92;1.10;;;24.20;67.50;;;;;;5012496;28;20044;-76
2023/06/05 11:11:57;;;;;;;4.25;1.20;;;24.30;68.90;;;;;;5023497;28;20082;-76
2023/06/05 11:14:42;;;;;;;3.67;1.10;;;24.40;69.00;;;;;;5000306;28;20241;-75
2023/06/05 11:17:29;;;;;;;4.35;1.00;;;24.60;69.20;;;;;;5024221;28;20530;-78
2023/06/05 11:19:58;;;;;;;2.17;0.90;;;24.30;67.00;;;;;;5016912;28;20595;-76
2023/06/05 11:22:26;;;;;;;2.38;1.30;;;24.40;68.80;;;;;;5007674;28;20055;-76
2023/06/05 11:25:15;;;;;;;2.70;1.30;;;24.60;68.50;;;;;;5017854;28;20045;-75
2023/06/05 11:28:01;;;;;;;2.15;1.05;;;24.50;67.20;;;;;;5021106;28;20044;-77
2023/06/05 11:30:32;;;;;;;2.53;1.40;;;24.60;66.80;;;;;;5021653;28;20049;-76
2023/06/05 11:33:18;;;;;;;3.00;1.60;;;24.70;66.90;;;;;;5011861;28;20534;-76
2023/06/05 11:35:50;;;;;;;2.38;1.08;;;24.80;66.70;;;;;;5018563;28;20053;-75
2023/06/05 11:38:20;;;;;;;3.25;1.17;;;24.70;65.90;;;;;;5020700;28;20041;-76
2023/06/05 11:40:51;;;;;;;2.85;1.08;;;24.70;66.00;;;;;;5009533;28;22089;-75
2023/06/05 11:43:18;;;;;;;3.63;1.15;;;24.90;66.90;;;;;;5010703;28;20074;-76
2023/06/05 11:45:55;;;;;;;2.72;1.20;;;24.90;67.50;;;;;;4997563;28;20041;-77
2023/06/05 11:48:24;;;;;;;2.90;1.20;;;24.80;65.30;;;;;;5012295;28;20057;-77
2023/06/05 11:50:57;;;;;;;3.20;1.25;;;24.70;64.80;;;;;;5001113;28;20060;-74
2023/06/05 11:53:26;;;;;;;2.40;1.23;;;24.70;65.90;;;;;;5012683;28;20811;-76
2023/06/05 11:56:06;;;;;;;2.58;1.00;;;24.80;65.80;;;;;;5012732;28;20692;-75
2023/06/05 11:58:39;;;;;;;2.43;0.90;;;24.90;64.50;;;;;;5001922;28;20049;-76
2023/06/05 12:01:23;;;;;;;3.47;0.85;;;24.90;62.00;;;;;;5034687;28;20827;-75
2023/06/05 12:04:07;;;;;;;1.58;0.70;;;24.70;59.80;;;;;;5018089;28;20811;-74
2023/06/05 12:06:42;;;;;;;3.28;0.73;;;24.80;59.90;;;;;;5016384;28;20526;-77
2023/06/05 12:09:11;;;;;;;3.13;1.00;;;24.80;59.20;;;;;;5019524;28;20052;-75
2023/06/05 12:11:39;;;;;;;1.83;0.75;;;24.90;59.70;;;;;;5017463;28;20052;-77
2023/06/05 12:14:06;;;;;;;4.25;0.70;;;24.90;60.60;;;;;;5017819;28;20052;-76
2023/06/05 12:16:38;;;;;;;2.92;0.90;;;24.90;58.60;;;;;;5002850;28;20052;-77
2023/06/05 12:19:18;;;;;;;2.83;1.13;;;24.90;57.30;;;;;;5031470;28;20523;-76
2023/06/05 12:21:48;;;;;;;2.00;0.93;;;24.80;58.00;;;;;;5017557;28;20053;-76
2023/06/05 12:24:24;;;;;;;3.47;1.00;;;24.80;57.60;;;;;;5005002;28;22306;-76
2023/06/05 12:26:55;;;;;;;2.38;1.00;;;24.80;58.30;;;;;;5008856;28;20045;-75
2023/06/05 12:29:30;;;;;;;2.85;0.70;;;24.90;58.60;;;;;;5011907;28;20053;-76
2023/06/05 12:31:59;;;;;;;2.05;0.90;;;24.90;59.60;;;;;;5019572;28;20044;-76
2023/06/05 12:34:41;;;;;;;2.17;1.30;;;25.00;60.10;;;;;;5024863;28;20831;-76
2023/06/05 12:37:21;;;;;;;3.78;0.88;;;24.90;59.90;;;;;;5021257;28;20515;-78
2023/06/05 12:39:48;;;;;;;2.60;1.15;;;25.00;60.40;;;;;;5026546;28;20484;-77
2023/06/05 12:42:15;;;;;;;2.50;0.80;;;25.00;60.30;;;;;;5019803;28;20041;-77
2023/06/05 12:44:42;;;;;;;3.03;0.80;;;25.00;60.20;;;;;;5020640;28;20689;-75
2023/06/05 12:47:10;;;;;;;2.30;0.73;;;25.00;60.20;;;;;;5015226;28;20049;-76
2023/06/05 12:49:37;;;;;;;3.88;0.95;;;25.00;59.70;;;;;;5029795;28;20041;-75
2023/06/05 12:52:08;;;;;;;2.85;1.15;;;25.00;60.00;;;;;;5007886;28;20068;-75
2023/06/05 12:54:36;;;;;;;4.38;1.73;;;25.00;58.70;;;;;;5017932;28;20044;-77
2023/06/05 12:57:06;;;;;;;1.58;0.95;;;24.90;59.30;;;;;;5018410;28;20048;-76
2023/06/05 12:59:35;;;;;;;5.15;0.70;;;25.00;60.00;;;;;;5010483;28;20738;-78
2023/06/05 13:02:03;;;;;;;3.55;0.88;;;24.90;60.10;;;;;;5022400;28;20052;-77